createdAt,value
2022-12-15T00:01:21.029Z,-9.38
2022-12-15T00:04:08.569Z,-9.40
2022-12-15T00:06:56.720Z,-9.38
2022-12-15T00:09:44.457Z,-9.40
2022-12-15T00:12:34.247Z,-9.44
2022-12-15T00:15:23.554Z,-9.43
2022-12-15T00:18:11.876Z,-9.49
2022-12-15T00:21:00.751Z,-9.51
2022-12-15T00:23:49.721Z,-9.53
2022-12-15T00:26:37.812Z,-9.54
2022-12-15T00:29:25.336Z,-9.49
2022-12-15T00:32:13.278Z,-9.50
2022-12-15T00:35:01.270Z,-9.51
2022-12-15T00:37:48.725Z,-9.54
2022-12-15T00:40:18.197Z,-9.58
2022-12-15T00:42:47.803Z,-9.60
2022-12-15T00:45:18.831Z,-9.64
2022-12-15T00:47:47.920Z,-9.68
2022-12-15T00:50:37.453Z,-9.67
2022-12-15T00:53:25.266Z,-9.58
2022-12-15T00:56:12.729Z,-9.56
2022-12-15T00:59:01.564Z,-9.59
2022-12-15T01:01:49.735Z,-9.62
2022-12-15T01:04:39.758Z,-9.65
2022-12-15T01:07:27.748Z,-9.64
2022-12-15T01:10:16.912Z,-9.60
2022-12-15T01:13:06.187Z,-9.57
2022-12-15T01:15:57.901Z,-9.53
2022-12-15T01:18:49.580Z,-9.54
2022-12-15T01:21:23.158Z,-9.53
2022-12-15T01:23:54.313Z,-9.52
2022-12-15T01:26:23.598Z,-9.56
2022-12-15T01:28:52.997Z,-9.61
2022-12-15T01:31:21.999Z,-9.65
2022-12-15T01:33:55.743Z,-9.67
2022-12-15T01:36:25.582Z,-9.66
2022-12-15T01:38:55.060Z,-9.60
2022-12-15T01:41:24.698Z,-9.51
2022-12-15T01:43:53.962Z,-9.38
2022-12-15T01:46:25.510Z,-9.29
2022-12-15T01:49:03.482Z,-9.22
2022-12-15T01:51:40.862Z,-9.17
2022-12-15T01:54:27.738Z,-9.08
2022-12-15T01:57:03.748Z,-8.95
2022-12-15T01:59:44.260Z,-8.84
2022-12-15T02:02:15.167Z,-8.70
2022-12-15T02:04:46.494Z,-8.58
2022-12-15T02:07:17.490Z,-8.46
2022-12-15T02:09:48.800Z,-8.35
2022-12-15T02:12:55.069Z,-8.19
2022-12-15T02:15:28.368Z,-8.00
2022-12-15T02:18:14.155Z,-7.87
2022-12-15T02:21:10.579Z,-7.71
2022-12-15T02:24:14.794Z,-7.58
2022-12-15T02:27:16.401Z,-7.53
2022-12-15T02:30:17.475Z,-7.54
2022-12-15T02:32:59.963Z,-7.45
2022-12-15T02:35:48.057Z,-7.37
2022-12-15T02:38:41.863Z,-7.40
2022-12-15T02:41:36.476Z,-7.47
2022-12-15T02:44:14.991Z,-7.46
2022-12-15T02:46:59.944Z,-7.46
2022-12-15T02:49:55.334Z,-7.49
2022-12-15T02:52:24.397Z,-7.56
2022-12-15T02:55:16.488Z,-7.57
2022-12-15T02:57:59.176Z,-7.57
2022-12-15T03:00:32.594Z,-7.57
2022-12-15T03:03:02.125Z,-7.54
2022-12-15T03:05:33.849Z,-7.51
2022-12-15T03:08:03.031Z,-7.51
2022-12-15T03:10:32.536Z,-7.50
2022-12-15T03:13:01.575Z,-7.44
2022-12-15T03:15:35.279Z,-7.33
2022-12-15T03:18:05.313Z,-7.21
2022-12-15T03:20:35.802Z,-7.10
2022-12-15T03:23:06.256Z,-7.07
2022-12-15T03:25:35.321Z,-7.07
2022-12-15T03:28:05.944Z,-7.01
2022-12-15T03:30:34.879Z,-6.88
2022-12-15T03:33:04.598Z,-6.76
2022-12-15T03:35:34.287Z,-6.66
2022-12-15T03:38:03.736Z,-6.65
2022-12-15T03:40:34.813Z,-6.69
2022-12-15T03:43:04.950Z,-6.73
2022-12-15T03:45:35.240Z,-6.74
2022-12-15T03:48:07.191Z,-6.73
2022-12-15T03:50:39.016Z,-6.73
2022-12-15T03:53:08.773Z,-6.75
2022-12-15T03:55:39.122Z,-6.75
2022-12-15T03:58:08.522Z,-6.77
2022-12-15T04:00:38.333Z,-6.77
2022-12-15T04:03:07.556Z,-6.76
2022-12-15T04:05:38.654Z,-6.74
2022-12-15T04:08:08.023Z,-6.72
2022-12-15T04:10:37.233Z,-6.68
2022-12-15T04:13:09.347Z,-6.62
2022-12-15T04:15:40.654Z,-6.58
2022-12-15T04:18:11.562Z,-6.52
2022-12-15T04:20:42.217Z,-6.49
2022-12-15T04:23:11.377Z,-6.50
2022-12-15T04:25:59.493Z,-6.54
2022-12-15T04:28:46.898Z,-6.54
2022-12-15T04:31:42.789Z,-6.49
2022-12-15T04:34:34.494Z,-6.43
2022-12-15T04:37:22.875Z,-6.39
2022-12-15T04:40:13.028Z,-6.33
2022-12-15T04:43:04.955Z,-6.30
2022-12-15T04:45:52.844Z,-6.33
2022-12-15T04:48:40.646Z,-6.36
2022-12-15T04:51:28.354Z,-6.38
2022-12-15T04:54:16.042Z,-6.40
2022-12-15T04:57:05.989Z,-6.41
2022-12-15T04:59:54.820Z,-6.37
2022-12-15T05:02:43.585Z,-6.28
2022-12-15T05:05:31.489Z,-6.11
2022-12-15T05:08:18.951Z,-6.05
2022-12-15T05:11:06.527Z,-6.05
2022-12-15T05:13:55.929Z,-5.99
2022-12-15T05:16:45.493Z,-5.91
2022-12-15T05:19:33.225Z,-5.83
2022-12-15T05:22:22.311Z,-5.77
2022-12-15T05:25:13.477Z,-5.77
2022-12-15T05:28:00.884Z,-5.74
2022-12-15T05:30:49.356Z,-5.67
2022-12-15T05:33:18.510Z,-5.61
2022-12-15T05:35:47.483Z,-5.57
2022-12-15T05:38:18.898Z,-5.53
2022-12-15T05:40:48.443Z,-5.56
2022-12-15T05:43:26.028Z,-5.54
2022-12-15T05:45:57.238Z,-5.50
2022-12-15T05:48:27.876Z,-5.47
2022-12-15T05:50:56.960Z,-5.43
2022-12-15T05:53:26.594Z,-5.42
2022-12-15T05:56:08.787Z,-5.41
2022-12-15T05:58:44.583Z,-5.40
2022-12-15T06:01:18.355Z,-5.39
2022-12-15T06:03:48.806Z,-5.44
2022-12-15T06:06:18.456Z,-5.47
2022-12-15T06:08:49.980Z,-5.44
2022-12-15T06:11:22.898Z,-5.47
2022-12-15T06:13:53.671Z,-5.50
2022-12-15T06:16:24.877Z,-5.54
2022-12-15T06:18:57.041Z,-5.58
2022-12-15T06:21:31.841Z,-5.60
2022-12-15T06:24:01.081Z,-5.60
2022-12-15T06:26:41.393Z,-5.58
2022-12-15T06:29:12.300Z,-5.60
2022-12-15T06:31:43.190Z,-5.60
2022-12-15T06:34:15.372Z,-5.56
2022-12-15T06:36:45.053Z,-5.53
2022-12-15T06:39:15.938Z,-5.51
2022-12-15T06:41:45.706Z,-5.55
2022-12-15T06:44:16.939Z,-5.55
2022-12-15T06:46:47.037Z,-5.53
2022-12-15T06:49:44.310Z,-5.51
2022-12-15T06:52:13.428Z,-5.51
2022-12-15T06:54:42.836Z,-5.48
2022-12-15T06:57:15.018Z,-5.43
2022-12-15T06:59:44.628Z,-5.40
2022-12-15T07:02:22.352Z,-5.37
2022-12-15T07:04:55.286Z,-5.38
2022-12-15T07:07:25.018Z,-5.38
2022-12-15T07:09:56.358Z,-5.36
2022-12-15T07:12:25.657Z,-5.35
2022-12-15T07:14:54.666Z,-5.34
2022-12-15T07:17:24.719Z,-5.33
2022-12-15T07:19:53.995Z,-5.37
2022-12-15T07:22:24.155Z,-5.42
2022-12-15T07:24:53.320Z,-5.42
2022-12-15T07:27:23.147Z,-5.41
2022-12-15T07:29:54.423Z,-5.36
2022-12-15T07:32:23.516Z,-5.30
2022-12-15T07:34:56.616Z,-5.27
2022-12-15T07:37:27.443Z,-5.26
2022-12-15T07:39:59.142Z,-5.26
2022-12-15T07:42:31.118Z,-5.25
2022-12-15T07:45:01.924Z,-5.23
2022-12-15T07:47:33.302Z,-5.23
2022-12-15T07:50:05.024Z,-5.28
2022-12-15T07:52:34.048Z,-5.29
2022-12-15T07:55:03.220Z,-5.24
2022-12-15T07:57:33.338Z,-5.17
2022-12-15T08:00:06.184Z,-5.11
2022-12-15T08:02:43.166Z,-5.06
2022-12-15T08:05:13.608Z,-5.02
2022-12-15T08:07:42.700Z,-4.94
2022-12-15T08:10:11.807Z,-4.88
2022-12-15T08:12:41.364Z,-4.87
2022-12-15T08:15:12.179Z,-4.87
2022-12-15T08:17:41.190Z,-4.84
2022-12-15T08:20:11.686Z,-4.78
2022-12-15T08:22:40.643Z,-4.73
2022-12-15T08:25:12.987Z,-4.72
2022-12-15T08:27:43.364Z,-4.71
2022-12-15T08:30:13.104Z,-4.66
2022-12-15T08:32:45.048Z,-4.60
2022-12-15T08:35:54.540Z,-4.56
2022-12-15T08:38:12.942Z,-4.61
2022-12-15T08:40:41.843Z,-4.62
2022-12-15T08:43:12.948Z,-4.59
2022-12-15T08:45:43.901Z,-4.57
2022-12-15T08:48:16.855Z,-4.52
2022-12-15T08:50:47.804Z,-4.50
2022-12-15T08:53:33.593Z,-4.53
2022-12-15T08:56:09.909Z,-4.54
2022-12-15T08:58:39.865Z,-4.50
2022-12-15T09:01:19.016Z,-4.45
2022-12-15T09:03:54.514Z,-4.38
2022-12-15T09:06:30.764Z,-4.30
2022-12-15T09:09:02.818Z,-4.21
2022-12-15T09:11:32.595Z,-4.14
2022-12-15T09:14:01.873Z,-4.07
2022-12-15T09:16:31.738Z,-4.02
2022-12-15T09:19:03.238Z,-4.03
2022-12-15T09:21:32.472Z,-4.06
2022-12-15T09:24:03.234Z,-4.10
2022-12-15T09:26:37.058Z,-4.10
2022-12-15T09:29:06.333Z,-4.12
2022-12-15T09:31:38.971Z,-4.11
2022-12-15T09:34:14.525Z,-4.07
2022-12-15T09:36:44.496Z,-4.08
2022-12-15T09:39:17.312Z,-4.09
2022-12-15T09:41:54.961Z,-4.08
2022-12-15T09:44:27.043Z,-4.02
2022-12-15T09:47:02.260Z,-4.01
2022-12-15T09:49:59.767Z,-4.04
2022-12-15T09:52:29.469Z,-4.00
2022-12-15T09:54:59.538Z,-4.01
2022-12-15T09:57:46.048Z,-4.08
2022-12-15T10:00:46.255Z,-4.02
2022-12-15T10:03:26.240Z,-3.99
2022-12-15T10:06:22.318Z,-3.95
2022-12-15T10:09:02.295Z,-3.86
2022-12-15T10:11:50.424Z,-3.75
2022-12-15T10:14:50.613Z,-3.74
2022-12-15T10:17:28.467Z,-3.81
2022-12-15T10:20:25.066Z,-3.82
2022-12-15T10:23:00.600Z,-3.84
2022-12-15T10:25:31.620Z,-3.90
2022-12-15T10:28:31.365Z,-3.85
2022-12-15T10:31:27.434Z,-3.79
2022-12-15T10:34:17.532Z,-3.86
2022-12-15T10:36:52.142Z,-3.92
2022-12-15T10:39:24.508Z,-3.87
2022-12-15T10:42:15.257Z,-3.77
2022-12-15T10:44:50.339Z,-3.79
2022-12-15T10:47:26.464Z,-3.81
2022-12-15T10:50:20.979Z,-3.80
2022-12-15T10:52:54.830Z,-3.89
2022-12-15T10:55:37.599Z,-3.88
2022-12-15T10:58:24.309Z,-3.88
2022-12-15T11:01:18.999Z,-4.03
2022-12-15T11:03:53.189Z,-4.12
2022-12-15T11:06:34.436Z,-4.13
2022-12-15T11:09:29.173Z,-4.10
2022-12-15T11:12:16.951Z,-4.05
2022-12-15T11:17:44.550Z,-4.19
2022-12-15T11:20:23.942Z,-4.35
2022-12-15T11:23:01.100Z,-4.41
2022-12-15T11:25:43.164Z,-4.38
2022-12-15T11:28:18.833Z,-4.35
2022-12-15T11:31:04.515Z,-4.36
2022-12-15T11:33:34.257Z,-4.45
2022-12-15T11:36:33.450Z,-4.58
2022-12-15T11:39:34.957Z,-4.57
2022-12-15T11:42:11.226Z,-4.61
2022-12-15T11:44:51.450Z,-4.64
2022-12-15T11:47:29.670Z,-4.68
2022-12-15T11:50:10.220Z,-4.79
2022-12-15T11:52:49.016Z,-4.92
2022-12-15T11:55:29.715Z,-5.02
2022-12-15T11:58:45.108Z,-5.05
2022-12-15T12:01:39.000Z,-5.07
2022-12-15T12:04:30.956Z,-5.06
2022-12-15T12:07:30.037Z,-5.12
2022-12-15T12:10:20.890Z,-5.13
2022-12-15T12:13:22.214Z,-5.30
2022-12-15T12:16:15.696Z,-5.35
2022-12-15T12:18:56.416Z,-5.39
2022-12-15T12:21:37.327Z,-5.38
2022-12-15T12:55:14.868Z,-5.75
2022-12-15T12:57:46.873Z,-5.91
2022-12-15T14:37:35.430Z,-5.78
2022-12-15T14:43:39.176Z,-5.71
2022-12-15T14:46:16.161Z,-5.66
2022-12-15T14:48:58.673Z,-5.63
2022-12-15T14:51:53.642Z,-5.61
2022-12-15T14:54:57.567Z,-5.57
2022-12-15T14:57:45.632Z,-5.53
2022-12-15T15:00:35.840Z,-5.46
2022-12-15T15:03:14.741Z,-4.11
2022-12-15T15:06:35.699Z,-5.36
2022-12-15T15:12:47.768Z,-5.26
2022-12-15T15:15:26.528Z,-5.22
2022-12-15T15:18:01.599Z,-5.18
2022-12-15T15:20:34.960Z,-5.13
2022-12-15T15:23:20.399Z,-5.11
2022-12-15T15:25:57.033Z,-5.08
2022-12-15T15:32:23.068Z,-4.99
2022-12-15T15:34:52.623Z,-4.97
2022-12-15T15:40:43.535Z,-4.95
2022-12-15T15:50:32.770Z,-4.87
2022-12-15T15:53:23.566Z,-4.87
2022-12-15T15:55:59.670Z,-4.86
2022-12-15T16:05:41.481Z,-4.87
2022-12-15T16:11:47.368Z,-4.84
2022-12-15T16:14:49.165Z,-4.83
2022-12-15T16:21:00.076Z,-4.80
2022-12-15T16:23:30.999Z,-4.79
2022-12-15T16:29:34.977Z,-4.81
2022-12-15T16:35:28.377Z,-4.79
2022-12-15T16:37:57.704Z,-4.84
2022-12-15T16:44:00.036Z,-4.86
2022-12-15T16:46:40.366Z,-4.81
2022-12-15T16:52:50.305Z,-4.78
2022-12-15T16:55:33.845Z,-4.78
2022-12-15T16:58:19.017Z,-4.77
2022-12-15T17:01:11.019Z,-4.74
2022-12-15T17:06:56.386Z,-4.73
2022-12-15T17:09:28.199Z,-4.72
2022-12-15T17:12:00.174Z,-4.70
2022-12-15T17:14:31.718Z,-4.70
2022-12-15T17:17:03.252Z,-4.70
2022-12-15T17:19:32.865Z,-4.68
2022-12-15T17:22:04.507Z,-4.68
2022-12-15T17:24:36.626Z,-4.69
2022-12-15T17:27:08.556Z,-4.69
2022-12-15T17:29:39.945Z,-4.68
2022-12-15T17:32:13.856Z,-4.67
2022-12-15T17:34:45.266Z,-4.69
2022-12-15T17:37:15.096Z,-4.70
2022-12-15T17:39:51.772Z,-4.71
2022-12-15T17:42:23.146Z,-4.72
2022-12-15T17:44:53.603Z,-4.69
2022-12-15T17:47:26.625Z,-4.68
2022-12-15T17:49:58.539Z,-4.67
2022-12-15T17:52:37.387Z,-4.66
2022-12-15T17:58:28.987Z,-4.64
2022-12-15T18:00:58.897Z,-4.65
2022-12-15T18:03:32.292Z,-4.64
2022-12-15T18:06:06.209Z,-4.62
2022-12-15T18:08:37.442Z,-4.60
2022-12-15T18:11:08.115Z,-4.60
2022-12-15T18:13:42.390Z,-4.60
2022-12-15T18:16:13.460Z,-4.63
2022-12-15T18:18:43.514Z,-4.62
2022-12-15T18:21:16.128Z,-4.63
2022-12-15T18:23:49.307Z,-4.64
2022-12-15T18:26:22.519Z,-4.64
2022-12-15T18:28:54.390Z,-4.64
2022-12-15T18:31:29.300Z,-4.64
2022-12-15T18:34:04.543Z,-4.64
2022-12-15T18:36:37.521Z,-4.65
2022-12-15T18:39:26.548Z,-4.65
2022-12-15T18:41:58.158Z,-4.66
2022-12-15T18:44:32.978Z,-4.66
2022-12-15T18:47:04.729Z,-4.65
2022-12-15T18:49:34.697Z,-4.63
2022-12-15T18:52:05.065Z,-4.61
2022-12-15T18:54:38.038Z,-4.60
2022-12-15T18:57:33.428Z,-4.60
2022-12-15T19:00:16.596Z,-4.62
2022-12-15T19:02:51.410Z,-4.62
2022-12-15T19:05:30.942Z,-4.62
2022-12-15T19:08:14.437Z,-4.59
2022-12-15T19:10:58.132Z,-4.57
2022-12-15T19:13:36.206Z,-4.55
2022-12-15T19:16:11.329Z,-4.55
2022-12-15T19:18:59.218Z,-4.57
2022-12-15T19:21:47.036Z,-4.62
2022-12-15T19:24:47.886Z,-4.65
2022-12-15T19:27:22.581Z,-4.66
2022-12-15T19:29:56.548Z,-4.66
2022-12-15T19:32:27.865Z,-4.65
2022-12-15T19:34:59.006Z,-4.64
2022-12-15T19:37:33.888Z,-4.65
2022-12-15T19:40:08.929Z,-4.65
2022-12-15T19:42:42.336Z,-4.65
2022-12-15T19:45:18.392Z,-4.67
2022-12-15T19:47:53.536Z,-4.68
2022-12-15T19:50:29.937Z,-4.69
2022-12-15T19:53:05.461Z,-4.68
2022-12-15T19:55:38.887Z,-4.67
2022-12-15T19:58:28.672Z,-4.67
2022-12-15T20:01:21.984Z,-4.67
2022-12-15T20:03:53.588Z,-4.67
2022-12-15T20:06:29.938Z,-4.68
2022-12-15T20:09:02.099Z,-4.69
2022-12-15T20:11:37.764Z,-4.71
2022-12-15T20:14:19.989Z,-4.72
2022-12-15T20:16:51.873Z,-4.71
2022-12-15T20:19:24.349Z,-4.71
2022-12-15T20:22:00.211Z,-4.69
2022-12-15T20:24:34.458Z,-4.71
2022-12-15T20:27:11.660Z,-4.70
2022-12-15T20:29:47.397Z,-4.70
2022-12-15T20:32:22.125Z,-4.70
2022-12-15T20:37:44.845Z,-4.70
2022-12-15T20:40:20.898Z,-4.71
2022-12-15T20:42:53.980Z,-4.71
2022-12-15T20:45:27.391Z,-4.71
2022-12-15T20:47:59.232Z,-4.74
2022-12-15T20:50:42.323Z,-4.77
2022-12-15T20:53:22.605Z,-4.77
2022-12-15T20:55:57.713Z,-4.77
2022-12-15T20:58:33.096Z,-4.75
2022-12-15T21:01:06.896Z,-4.74
2022-12-15T21:03:39.397Z,-4.74
2022-12-15T21:06:11.615Z,-4.74
2022-12-15T21:08:42.390Z,-4.74
2022-12-15T21:11:23.367Z,-4.75
2022-12-15T21:13:54.804Z,-4.76
2022-12-15T21:16:27.669Z,-4.77
2022-12-15T21:19:19.221Z,-4.77
2022-12-15T21:21:52.501Z,-4.77
2022-12-15T21:24:27.500Z,-4.78
2022-12-15T21:26:57.409Z,-4.78
2022-12-15T21:29:29.370Z,-4.77
2022-12-15T21:31:59.757Z,-4.76
2022-12-15T21:34:29.234Z,-4.77
2022-12-15T21:36:59.935Z,-4.76
2022-12-15T21:39:34.658Z,-4.75
2022-12-15T21:42:08.878Z,-4.76
2022-12-15T21:44:38.332Z,-4.78
2022-12-15T21:47:27.443Z,-4.78
2022-12-15T21:49:57.969Z,-4.77
2022-12-15T21:52:28.298Z,-4.77
2022-12-15T21:54:57.447Z,-4.77
2022-12-15T21:57:26.502Z,-4.76
2022-12-15T21:59:56.829Z,-4.76
2022-12-15T22:02:27.412Z,-4.74
2022-12-15T22:04:56.737Z,-4.72
2022-12-15T22:07:28.088Z,-4.73
2022-12-15T22:09:58.810Z,-4.73
2022-12-15T22:12:29.445Z,-4.73
2022-12-15T22:14:58.853Z,-4.72
2022-12-15T22:17:33.437Z,-4.72
2022-12-15T22:20:06.564Z,-4.74
2022-12-15T22:22:35.951Z,-4.74
2022-12-15T22:25:07.914Z,-4.75
2022-12-15T22:27:37.772Z,-4.75
2022-12-15T22:30:15.994Z,-4.73
2022-12-15T22:32:45.654Z,-4.71
2022-12-15T22:35:20.462Z,-4.69
2022-12-15T22:37:54.007Z,-4.71
2022-12-15T22:40:26.414Z,-4.71
2022-12-15T22:42:58.338Z,-4.68
2022-12-15T22:45:28.755Z,-4.66
2022-12-15T22:47:57.953Z,-4.66
2022-12-15T22:50:27.915Z,-4.68
2022-12-15T22:52:57.837Z,-4.70
2022-12-15T22:55:28.693Z,-4.72
2022-12-15T22:58:01.322Z,-4.73
2022-12-15T23:00:31.133Z,-4.73
2022-12-15T23:03:01.615Z,-4.74
2022-12-15T23:05:30.782Z,-4.77
2022-12-15T23:08:00.178Z,-4.82
2022-12-15T23:10:47.966Z,-4.83
2022-12-15T23:13:17.011Z,-4.81
2022-12-15T23:16:06.870Z,-4.80
2022-12-15T23:18:39.095Z,-4.80
2022-12-15T23:21:09.988Z,-4.80
2022-12-15T23:23:39.242Z,-4.82
2022-12-15T23:26:08.374Z,-4.84
2022-12-15T23:28:39.169Z,-4.85
2022-12-15T23:31:09.351Z,-4.85
2022-12-15T23:33:38.864Z,-4.87
2022-12-15T23:36:09.834Z,-4.88
2022-12-15T23:38:42.414Z,-4.90
2022-12-15T23:41:16.629Z,-4.94
2022-12-15T23:43:47.829Z,-4.95
2022-12-15T23:46:17.021Z,-4.95
2022-12-15T23:48:49.374Z,-4.96
2022-12-15T23:51:21.591Z,-4.98
2022-12-15T23:53:52.075Z,-4.99
2022-12-15T23:56:25.035Z,-4.99
2022-12-15T23:58:59.457Z,-4.98
